横田飛行場の過去48時間の天気

横田飛行場 (Yokota)

現在時刻: 7/23 03:30 JST (7/22 18:30 UTC) 以下の時間は現地時間です。

過去48時間のMETAR気象情報
時間 風向 風速(m/s) 視程 気温(℃) 湿度(%) 気圧(hPa) 天気現象
23 02:56 西北西 2 10km以上 28.6 68 1007.7
23 01:56 静穏 0 10km以上 28.5 68 1007.7
23 00:56 北西 2 10km以上 29.7 63 1007.7
22 23:56 北西 2 10km以上 29.9 62 1008
22 22:56 西 2 10km以上 30.3 65 1008.4
22 21:56 西 2 10km以上 30.7 69 1009
22 20:56 2 10km以上 29.8 71 1009.1
22 19:56 2 10km以上 30.4 70 1008.8
22 18:56 4 10km以上 31 66 1008.4
22 17:56 南南西 5 10km以上 32.2 61 1008.2
22 16:56 南南西 5 10km以上 33 59 1007.8
22 15:56 南南西 5 10km以上 34.9 54 1007.8
22 14:56 南西 3 10km以上 35.9 51 1007.7
22 13:56 南西 2 10km以上 35.8 50 1008.1
22 13:40 南南西 6 10km以上 37 47 1008.4
22 12:56 南南西 3 10km以上 36 49 1008.7
22 11:56 静穏 0 10km以上 35.4 47 1009.4
22 10:56 静穏 0 10km以上 34.4 52 1010.1
22 09:56 北北東 3 10km以上 34.2 55 1010.8
22 08:56 3 10km以上 32.8 61 1011.2
22 07:56 静穏 0 10km以上 31.3 63 1011.5
22 06:56 静穏 0 10km以上 30.3 67 1011.5
22 05:56 西 2 10km以上 28.1 75 1011.5
22 04:56 静穏 0 10km以上 27.3 78 1011.2
22 03:56 西北西 2 10km以上 27.4 78 1010.9
22 02:56 西南西 2 10km以上 27.7 78 1010.5
22 01:56 3 10km以上 27.6 80 1010.4
22 00:56 北北東 2 10km以上 28 79 1010.8
21 23:56 北北東 2 10km以上 28.3 76 1011.2
21 22:56 北西 2 10km以上 29.7 71 1011.1
21 21:56 静穏 0 10km以上 28.9 72 1011.2
21 20:56 静穏 0 10km以上 29.6 66 1011.2
21 19:56 3 10km以上 29.7 64 1010.9
21 18:56 4 10km以上 30.7 68 1010.5
21 17:56 5 10km以上 31.8 62 1010.5
21 16:56 5 10km以上 32.2 58 1010.6
21 15:56 6 10km以上 33 57 1010.5
21 14:56 南南西 5 10km以上 34.6 53 1010.5
21 13:56 6 10km以上 35.1 53 1010.8
21 12:56 6 10km以上 35.6 52 1011.1
21 11:56 南南東 3 10km以上 34.2 55 1011.5
21 10:56 東南東 3 10km以上 34.3 56 1012.2
21 09:56 東南東 3 10km以上 33 61 1012.9
21 08:56 静穏 0 10km以上 30.8 68 1012.9
21 07:56 静穏 0 10km以上 30 72 1013.3
21 06:56 静穏 0 10km以上 28.4 76 1013
21 05:56 西 2 10km以上 27.2 79 1013
21 04:56 西南西 2 10km以上 26.2 84 1013
RJTY 221756Z AUTO 29004KT 10SM CLR 29/22 A2978 RMK AO2 SLP077 T02860221 10311 20280 55002 FZRANO $
RJTY 221656Z AUTO 00000KT 10SM BKN070 29/22 A2978 RMK AO2 SLP077 T02850220 FZRANO $
RJTY 221556Z AUTO 31003KT 10SM CLR 30/22 A2978 RMK AO2 SLP077 T02970219 FZRANO $
RJTY 221456Z AUTO 31003KT 10SM CLR 30/22 A2979 RMK AO2 SLP080 T02990218 403680271 57012 FZRANO $
RJTY 221356Z AUTO 28004KT 10SM CLR 30/23 A2980 RMK AO2 SLP084 T03030229 FZRANO $
RJTY 221256Z AUTO 27004KT 10SM CLR 31/24 A2982 RMK AO2 SLP090 T03070243 FZRANO $
RJTY 221156Z AUTO 18003KT 10SM CLR 30/24 A2982 RMK AO2 SLP091 T02980239 10361 20298 52010 FZRANO $
RJTY 221056Z AUTO 18004KT 10SM SCT065 30/24 A2981 RMK AO2 SLP088 T03040243 FZRANO $
RJTY 220956Z AUTO 18007KT 10SM CLR 31/24 A2980 RMK AO2 SLP084 T03100239 FZRANO $
RJTY 220856Z AUTO 21010KT 10SM CLR 32/24 A2979 RMK AO2 LTG DSNT SW-W SLP082 T03220237 50003 FZRANO $
RJTY 220756Z AUTO 20010KT 10SM CLR 33/24 A2978 RMK AO2 LTG DSNT W SLP078 T03300239 FZRANO $
RJTY 220656Z AUTO 21009KT 10SM CLR 35/24 A2978 RMK AO2 SLP078 T03490242 FZRANO $
RJTY 220556Z AUTO 22006KT 10SM CLR 36/24 A2978 RMK AO2 SLP077 T03590241 10368 20324 57017 FZRANO $
RJTY 220456Z AUTO 23003KT 10SM CLR 36/24 A2979 RMK AO2 SLP081 T03580237 FZRANO $
RJTY 220440Z AUTO 20011G15KT 10SM FEW055 FEW180 37/24 A2980 RMK AO2 WSHFT 39 SLP084 FZRANO $
RJTY 220356Z AUTO 20006KT 10SM FEW055 FEW210 36/24 A2981 RMK AO2 SLP087 T03600235 FZRANO $
RJTY 220256Z AUTO 00000KT 10SM FEW190 FEW210 35/22 A2983 RMK AO2 SLP094 T03540223 57016 FZRANO $
RJTY 220156Z AUTO 00000KT 10SM FEW200 34/23 A2985 RMK AO2 SLP101 T03440231 FZRANO $
RJTY 220056Z AUTO 03005KT 10SM CLR 34/24 A2987 RMK AO2 SLP108 T03420238 FZRANO $
RJTY 212356Z AUTO 09006KT 10SM CLR 33/24 A2988 RMK AO2 SLP112 T03280242 10328 20271 58003 FZRANO $
RJTY 212256Z AUTO 00000KT 10SM CLR 31/23 A2989 RMK AO2 SLP115 T03130234 FZRANO $
RJTY 212156Z AUTO 00000KT 10SM CLR 30/23 A2989 RMK AO2 SLP115 T03030234 FZRANO $
RJTY 212056Z AUTO 28003KT 10SM CLR 28/23 A2989 RMK AO2 SLP115 T02810232 52009 FZRANO $
RJTY 211956Z AUTO 00000KT 10SM SCT055 27/23 A2988 RMK AO2 SLP112 T02730231 FZRANO $
RJTY 211856Z AUTO 29004KT 10SM CLR 27/23 A2987 RMK AO2 SLP109 T02740232 FZRANO $
RJTY 211756Z AUTO 25003KT 10SM CLR 28/24 A2986 RMK AO2 SLP105 T02770235 10297 20272 56005 FZRANO $
RJTY 211656Z AUTO 01005KT 10SM CLR 28/24 A2986 RMK AO2 SLP104 T02760238 FZRANO $
RJTY 211556Z AUTO 03003KT 10SM CLR 28/24 A2987 RMK AO2 SLP108 T02800240 FZRANO $
RJTY 211456Z AUTO 02004KT 10SM CLR 28/24 A2988 RMK AO2 SLP112 T02830236 403560258 57002 FZRANO $
RJTY 211356Z AUTO 31003KT 10SM CLR 30/24 A2988 RMK AO2 SLP111 T02970238 FZRANO $
RJTY 211256Z AUTO 00000KT 10SM CLR 29/23 A2988 RMK AO2 SLP112 T02890233 FZRANO $
RJTY 211156Z AUTO 00000KT 10SM CLR 30/23 A2988 RMK AO2 SLP112 T02960225 10345 20291 53007 FZRANO $
RJTY 211056Z AUTO 18005KT 10SM CLR 30/22 A2987 RMK AO2 SLP109 T02970221 FZRANO $
RJTY 210956Z AUTO 18007KT 10SM CLR 31/24 A2986 RMK AO2 SLP105 T03070241 FZRANO $
RJTY 210856Z AUTO 18009KT 10SM CLR 32/24 A2986 RMK AO2 SLP105 T03180236 50001 FZRANO $
RJTY 210756Z AUTO 17010KT 10SM CLR 32/23 A2986 RMK AO2 SLP106 T03220228 FZRANO $
RJTY 210656Z AUTO 19011KT 10SM CLR 33/23 A2986 RMK AO2 SLP105 T03300233 FZRANO $
RJTY 210556Z AUTO 20010KT 10SM CLR 35/24 A2986 RMK AO2 SLP105 T03460236 10356 20309 57012 FZRANO $
RJTY 210456Z AUTO 17011G16KT 10SM CLR 35/24 A2987 RMK AO2 SLP108 T03510240 FZRANO $
RJTY 210356Z AUTO 18012G17KT 10SM CLR 36/24 A2988 RMK AO2 SLP111 T03560242 FZRANO $
RJTY 210256Z AUTO 15006KT 10SM SCT044 34/24 A2989 RMK AO2 SLP115 T03420238 58012 FZRANO $
RJTY 210156Z AUTO 12006KT 10SM CLR 34/24 A2991 RMK AO2 SLP122 T03430242 FZRANO $
RJTY 210056Z AUTO 11005KT 10SM CLR 33/24 A2993 RMK AO2 SLP129 T03300244 FZRANO $
RJTY 202356Z AUTO 00000KT 10SM FEW025 31/24 A2993 RMK AO2 SLP129 T03080242 10312 20258 50002 FZRANO $
RJTY 202256Z AUTO 00000KT 10SM CLR 30/24 A2994 RMK AO2 SLP133 T03000244 FZRANO $
RJTY 202156Z AUTO 00000KT 10SM CLR 28/24 A2993 RMK AO2 SLP130 T02840237 FZRANO $
RJTY 202056Z AUTO 27003KT 10SM CLR 27/23 A2993 RMK AO2 SLP130 T02720232 51005 FZRANO $
RJTY 201956Z AUTO 25003KT 10SM CLR 26/23 A2993 RMK AO2 SLP130 T02620232 FZRANO $